Academy, Texas
Current Conditions -  °F | °C
As of 2:55 PM on Saturday 20 Dec 2014 (Local Time) from KTPL Reporting Station
Overcast Overcast  
Wind Chill: 11°   Ceiling: 1900
Heat Index: 11°   Visibility: 10mi
Dew Point:   Wind: 9mph
Humidity: 67%   Direction: 10°N
Pressure: 30.16"   Gusts: NA
Location:  30.9809°N, 97.3415°W
Report Text: KTPL 202055Z AUTO 01008KT 10SM OVC019 11/05 A3016 RMK AO1 57024
Loading
Personal Weather Stations






























Interactive Weather Map New forecast layout! Learn more

10-Day Weather Forecast

Advertisements
Track Severe Weather on mobile